createdAt,value
2019-04-05T01:08:37.825Z,82.00
2019-04-05T01:11:32.604Z,82.10
2019-04-05T01:14:07.740Z,82.20
2019-04-05T01:40:57.277Z,83.10
2019-04-05T01:46:24.556Z,83.50
2019-04-05T01:48:55.322Z,83.30
2019-04-05T03:11:15.050Z,85.90
2019-04-05T03:14:17.291Z,85.70
2019-04-05T03:16:54.560Z,85.40
2019-04-05T03:19:38.413Z,85.70
2019-04-05T03:22:13.222Z,85.90
2019-04-05T03:24:48.264Z,85.80
2019-04-05T03:27:25.216Z,86.00
2019-04-05T03:29:57.313Z,85.90
2019-04-05T03:32:28.042Z,85.70
2019-04-05T03:35:00.262Z,85.70
2019-04-05T03:37:30.599Z,85.40
2019-04-05T05:00:49.519Z,87.60
2019-04-05T05:03:29.525Z,88.40
2019-04-05T05:06:21.618Z,88.70
2019-04-05T05:26:49.386Z,89.00
2019-04-05T05:29:22.393Z,89.00
2019-04-05T05:32:16.864Z,88.60
2019-04-05T05:40:34.892Z,88.50
2019-04-05T05:46:49.386Z,87.80
2019-04-05T05:49:18.662Z,88.10
2019-04-05T05:51:55.353Z,87.50
2019-04-05T05:54:31.969Z,87.60
2019-04-05T05:57:06.092Z,87.60
2019-04-05T05:59:38.364Z,87.40
2019-04-05T06:02:19.477Z,87.40
2019-04-05T06:05:00.889Z,87.20
2019-04-05T06:07:41.465Z,87.20
2019-04-05T06:10:15.839Z,87.10
2019-04-05T06:13:00.006Z,86.80
2019-04-05T06:15:28.758Z,86.70
2019-04-05T06:18:05.018Z,86.30
2019-04-05T06:20:38.575Z,86.00
2019-04-05T06:23:13.364Z,85.90
2019-04-05T06:25:53.222Z,85.80
2019-04-05T06:28:31.774Z,85.80
2019-04-05T06:31:27.915Z,85.70
2019-04-05T06:34:08.333Z,85.70
2019-04-05T06:36:47.257Z,85.30
2019-04-05T06:39:26.098Z,85.10
2019-04-05T06:42:06.440Z,84.90
2019-04-05T06:44:41.796Z,85.10
2019-04-05T06:47:23.906Z,84.40
2019-04-05T06:50:00.626Z,84.30
2019-04-05T06:52:46.222Z,84.00
2019-04-05T06:55:23.057Z,84.10
2019-04-05T06:58:02.500Z,83.50
2019-04-05T07:00:56.790Z,83.10
2019-04-05T07:03:26.774Z,82.90
2019-04-05T07:06:00.525Z,82.60
2019-04-05T07:08:32.121Z,82.30
2019-04-05T07:11:30.455Z,82.20
2019-04-05T07:14:31.826Z,81.70
2019-04-05T07:17:16.953Z,81.50
2019-04-05T07:19:53.915Z,80.90
2019-04-05T07:22:43.234Z,81.00
2019-04-05T07:25:16.941Z,80.60
2019-04-05T07:27:58.728Z,80.70
2019-04-05T07:30:38.001Z,79.80
2019-04-05T07:33:14.367Z,80.20
2019-04-05T07:36:24.658Z,80.00
2019-04-05T07:39:01.750Z,79.20
2019-04-05T07:42:04.720Z,79.50
2019-04-05T07:44:38.887Z,79.60
2019-04-05T07:48:06.770Z,78.90
2019-04-05T07:55:04.506Z,78.40
2019-04-05T08:01:14.980Z,78.00
2019-04-05T08:04:00.683Z,77.60
2019-04-05T08:06:44.329Z,78.00
2019-04-05T08:09:54.326Z,77.80
2019-04-05T08:13:06.260Z,77.10
2019-04-05T08:15:35.927Z,76.90
2019-04-05T08:18:56.495Z,76.10
2019-04-05T08:21:39.745Z,76.20
2019-04-05T08:24:50.870Z,75.80
2019-04-05T08:27:26.929Z,75.80
2019-04-05T08:30:40.735Z,75.20
2019-04-05T08:33:31.399Z,75.20
2019-04-05T08:36:18.234Z,75.10
2019-04-05T08:39:03.652Z,74.10
2019-04-05T08:42:25.979Z,72.50
2019-04-05T08:45:07.174Z,72.90
2019-04-05T08:48:08.141Z,70.80
2019-04-05T08:51:13.566Z,70.60
2019-04-05T08:53:51.825Z,70.60
2019-04-05T09:02:11.171Z,70.30
2019-04-05T09:04:14.277Z,70.10
2019-04-05T09:07:59.898Z,67.90
2019-04-05T09:11:06.223Z,68.30
2019-04-05T09:14:01.461Z,68.00
2019-04-05T09:32:45.017Z,64.70
2019-04-05T09:40:10.653Z,65.70
2019-04-05T10:03:13.597Z,62.90
2019-04-05T10:06:54.946Z,61.90
2019-04-05T10:11:20.102Z,62.30
2019-04-05T10:32:17.454Z,60.70
2019-04-05T10:44:28.240Z,59.90
2019-04-05T10:47:06.837Z,58.30
2019-04-05T10:53:55.498Z,56.50
2019-04-05T10:56:33.688Z,56.00
2019-04-05T10:59:34.192Z,56.50
2019-04-05T11:02:31.286Z,54.00
2019-04-05T11:05:25.916Z,54.60
2019-04-05T11:07:53.871Z,55.10
2019-04-05T11:10:36.446Z,56.10
2019-04-05T11:13:40.161Z,56.40
2019-04-05T11:16:21.366Z,56.20
2019-04-05T11:18:52.736Z,54.70
2019-04-05T11:21:36.091Z,53.30
2019-04-05T11:24:57.186Z,53.60
2019-04-05T11:30:28.648Z,54.00
2019-04-05T11:33:10.507Z,53.50
2019-04-05T11:44:01.752Z,52.30
2019-04-05T11:47:33.595Z,50.90
2019-04-05T11:59:08.806Z,51.50
2019-04-05T12:19:20.387Z,50.20
2019-04-05T12:33:58.177Z,49.10
2019-04-05T12:37:29.376Z,48.20
2019-04-05T12:47:34.008Z,48.80
2019-04-05T12:54:25.893Z,48.60
2019-04-05T12:59:08.431Z,48.90
2019-04-05T13:05:20.373Z,48.20
2019-04-05T13:39:49.199Z,46.30
2019-04-05T13:44:34.504Z,46.70
2019-04-05T13:47:46.626Z,48.00
2019-04-05T13:51:07.233Z,45.60
2019-04-05T14:01:18.493Z,44.90
2019-04-05T14:07:39.412Z,45.20
2019-04-05T14:10:39.695Z,45.40
2019-04-05T14:13:50.616Z,46.60
2019-04-05T14:24:47.448Z,48.80
2019-04-05T14:27:18.994Z,50.00
2019-04-05T14:42:36.866Z,49.60
2019-04-05T14:45:14.345Z,49.30
2019-04-05T14:47:44.916Z,49.40
2019-04-05T14:50:58.567Z,49.60
2019-04-05T14:53:32.321Z,50.00
2019-04-05T14:56:39.331Z,50.60
2019-04-05T14:59:09.906Z,50.30
2019-04-05T15:01:51.693Z,51.00
2019-04-05T15:04:22.201Z,51.30
2019-04-05T15:07:20.461Z,51.70
2019-04-05T15:13:37.985Z,51.30
2019-04-05T15:21:30.997Z,52.50
2019-04-05T15:24:00.313Z,52.50
2019-04-05T15:26:29.592Z,53.30
2019-04-05T15:52:55.133Z,55.80
2019-04-05T15:55:24.070Z,55.80
2019-04-05T15:57:53.559Z,56.00
2019-04-05T16:00:44.255Z,56.30
2019-04-05T16:03:13.603Z,56.20
2019-04-05T16:05:43.180Z,55.50
2019-04-05T16:08:18.851Z,56.10
2019-04-05T16:10:55.760Z,57.20
2019-04-05T16:13:29.607Z,58.30
2019-04-05T16:16:16.101Z,57.70
2019-04-05T16:18:46.662Z,57.90
2019-04-05T16:21:16.149Z,58.20
2019-04-05T16:32:51.140Z,58.30
2019-04-05T16:35:23.851Z,58.10
2019-04-05T16:37:53.430Z,58.40
2019-04-05T16:40:23.038Z,59.00
2019-04-05T16:43:02.441Z,59.40
2019-04-05T16:46:30.512Z,59.30
2019-04-05T16:50:26.806Z,60.00
2019-04-05T17:16:45.721Z,63.00
2019-04-05T17:23:52.351Z,64.20
2019-04-05T17:27:20.994Z,64.40
2019-04-05T17:31:01.931Z,65.40
2019-04-05T17:34:22.458Z,64.80
2019-04-05T17:41:15.881Z,65.10
2019-04-05T17:48:09.567Z,65.90
2019-04-05T18:01:59.809Z,67.30
2019-04-05T18:04:49.052Z,67.60
2019-04-05T18:08:21.037Z,67.90
2019-04-05T18:25:46.045Z,69.10
2019-04-05T18:32:21.768Z,69.40
2019-04-05T18:35:51.250Z,69.60
2019-04-05T18:43:03.959Z,70.30
2019-04-05T18:52:35.242Z,70.90
2019-04-05T18:55:42.446Z,71.90
2019-04-05T18:58:09.262Z,71.40
2019-04-05T19:00:44.414Z,71.80
2019-04-05T19:03:28.274Z,71.90
2019-04-05T19:06:09.156Z,72.20
2019-04-05T19:10:16.206Z,72.40
2019-04-05T19:11:57.904Z,72.90
2019-04-05T19:18:27.428Z,72.90
2019-04-05T19:25:42.498Z,73.60
2019-04-05T19:49:27.643Z,74.40
2019-04-05T19:52:41.012Z,74.40
2019-04-05T19:55:08.648Z,74.40
2019-04-05T19:57:41.605Z,74.50
2019-04-05T20:00:18.766Z,74.70
2019-04-05T20:02:48.325Z,74.90
2019-04-05T20:05:19.595Z,75.60
2019-04-05T20:07:56.359Z,75.10
2019-04-05T20:10:31.722Z,75.00
2019-04-05T20:13:09.036Z,75.10
2019-04-05T20:15:50.002Z,75.20
2019-04-05T20:18:22.718Z,75.30
2019-04-05T20:20:53.683Z,75.40
2019-04-05T20:23:47.136Z,75.60
2019-04-05T20:26:17.088Z,76.50
2019-04-05T20:28:49.611Z,75.90
2019-04-05T20:31:28.553Z,76.00
2019-04-05T20:34:12.026Z,76.30
2019-04-05T20:36:49.699Z,76.30
2019-04-05T20:39:22.318Z,76.60
2019-04-05T20:41:54.891Z,76.50
2019-04-05T20:44:27.558Z,76.50
2019-04-05T20:47:02.673Z,76.70
2019-04-05T20:49:37.445Z,76.70
2019-04-05T20:52:08.271Z,76.70
2019-04-05T20:54:43.269Z,76.90
2019-04-05T20:57:16.952Z,76.90
2019-04-05T20:59:52.243Z,77.00
2019-04-05T21:02:29.436Z,77.20
2019-04-05T21:05:01.345Z,77.10
2019-04-05T21:07:33.924Z,77.10
2019-04-05T21:10:08.004Z,77.10
2019-04-05T21:12:37.697Z,77.30
2019-04-05T21:15:09.047Z,77.30
2019-04-05T21:17:40.247Z,77.30
2019-04-05T21:20:12.584Z,77.30
2019-04-05T21:22:42.043Z,77.20
2019-04-05T21:25:16.337Z,77.10
2019-04-05T21:27:52.936Z,77.00
2019-04-05T21:30:28.033Z,77.10
2019-04-05T21:33:11.569Z,77.10
2019-04-05T21:35:46.034Z,77.20
2019-04-05T21:38:16.143Z,77.20
2019-04-05T21:40:47.479Z,77.10
2019-04-05T21:43:17.101Z,77.40
2019-04-05T21:45:52.489Z,77.50
2019-04-05T21:48:24.442Z,77.60
2019-04-05T21:51:01.335Z,77.40
2019-04-05T21:53:37.002Z,77.40
2019-04-05T21:56:07.108Z,77.40
2019-04-05T21:58:39.573Z,77.80
2019-04-05T22:01:12.945Z,77.60
2019-04-05T22:04:03.725Z,77.10
2019-04-05T22:06:20.762Z,77.30
2019-04-05T22:08:50.727Z,77.00
2019-04-05T22:11:27.537Z,76.90
2019-04-05T22:13:57.908Z,77.00
2019-04-05T22:16:28.664Z,77.00
2019-04-05T22:19:08.753Z,77.10
2019-04-05T22:21:47.774Z,77.10
2019-04-05T22:24:19.257Z,77.10
2019-04-05T22:26:59.561Z,77.10
2019-04-05T22:29:26.515Z,77.20
2019-04-05T22:32:04.161Z,76.90
2019-04-05T22:34:33.462Z,76.80
2019-04-05T22:37:06.461Z,77.10
2019-04-05T22:39:35.916Z,76.20
2019-04-05T22:42:13.078Z,76.00
2019-04-05T22:44:43.184Z,75.80
2019-04-05T22:47:16.987Z,75.30
2019-04-05T22:49:52.312Z,75.40
2019-04-05T22:52:29.572Z,75.30
2019-04-05T22:55:11.465Z,75.30
2019-04-05T22:57:41.241Z,75.50
2019-04-05T23:00:16.568Z,75.10
2019-04-05T23:02:55.481Z,75.00
2019-04-05T23:06:05.204Z,74.80
2019-04-05T23:08:43.190Z,74.90
2019-04-05T23:11:16.393Z,74.70
2019-04-05T23:13:48.741Z,74.40
2019-04-05T23:16:24.694Z,74.60
2019-04-05T23:19:11.373Z,75.00
2019-04-05T23:21:45.745Z,75.20
2019-04-05T23:24:19.498Z,75.00
2019-04-05T23:26:52.545Z,74.90
2019-04-05T23:29:23.470Z,75.10
2019-04-05T23:31:56.748Z,75.40
2019-04-05T23:34:33.885Z,75.50
2019-04-05T23:37:03.214Z,75.70
2019-04-05T23:39:35.347Z,75.80
2019-04-05T23:42:13.834Z,76.10
2019-04-05T23:44:43.256Z,76.00
2019-04-05T23:47:15.466Z,76.50
2019-04-05T23:49:48.382Z,75.90
2019-04-05T23:52:21.408Z,75.90
2019-04-05T23:54:51.327Z,75.90
2019-04-05T23:57:22.382Z,75.70
